Station: Yulara

  Atmospheric Gas Attenuation - ITU Rec 676-11   --------------- db/100km ---------------
Date Time Temp RH % AH g/m3 Dew Point Wind Direction Speed kph Gust kph Barometer mB Rainfall Since 9am 24GHz 47GHz 76GHz 122GHz 134GHz 241GHz
07 07:00 6.6 92 6.95 5.4 11 13 1014.7 0 16.4 25.3 36.6 95.8 84.9 290.0
07 06:50 6.7 91 6.92 5.3 13 15 1015.5 0 16.3 25.3 36.5 95.4 84.4 288.4
07 06:40 7 89 6.9 5.3 7 9 1015.4 0 16.2 25.1 36.2 94.8 83.8 286.3
07 06:30 7.3 88 6.96 5.4 11 15 1014.5 0 16.4 25.1 36.3 95.0 84.2 287.9
07 06:20 7.6 87 7.01 5.6 11 13 1015.3 0 16.5 25.1 36.4 95.3 84.6 289.3
07 06:10 7.8 86 7.02 5.6 15 19 1015.2 0 16.5 25.1 36.4 95.2 84.5 289.1
07 06:00 7.8 86 7.02 5.6 13 17 1014.3 0 16.5 25.1 36.3 95.1 84.5 288.8
07 05:50 7.5 87 6.97 5.5 9 9 1015.1 0 16.4 25.1 36.3 95.0 84.2 287.8
07 05:40 7.5 87 6.97 5.5 7 9 1015.1 0 16.4 25.1 36.3 95.0 84.2 287.8
07 05:30 7.6 85 6.85 5.2 7 11 1014.2 0 16.1 24.8 35.7 93.4 82.4 281.5
07 05:20 8.2 84 7.04 5.7 6 7 1015.1 0 16.5 25.0 36.2 94.9 84.3 288.5
07 05:10 8.2 84 7.04 5.7 6 7 1015.2 0 16.5 25.0 36.2 94.9 84.4 288.5
07 04:50 8.6 82 7.05 5.7 7 9 1015.3 0 16.5 24.9 36.1 94.5 84.1 287.6
07 04:40 8.6 82 7.05 5.7 9 9 1015.3 0 16.5 24.9 36.1 94.5 84.1 287.6
07 04:30 8.7 81 7.01 5.6 15 20 1014.5 0 16.4 24.8 35.9 93.9 83.4 285.1
07 04:20 9 80 7.06 5.7 17 20 1015.1 0 16.5 24.8 36.0 94.1 83.7 286.5
07 04:10 9.2 79 7.06 5.8 19 24 1015.2 0 16.5 24.8 35.9 93.9 83.5 285.8
07 04:00 9.4 78 7.06 5.8 15 24 1014.4 0 16.5 24.7 35.8 93.6 83.3 284.9
07 03:50 9.4 77 6.97 5.6 17 24 1015 0 16.3 24.6 35.4 92.7 82.1 280.9
07 03:40 9.4 77 6.97 5.6 30 33 1014.8 0 16.3 24.6 35.4 92.7 82.1 280.8
07 03:30 9.6 77 7.06 5.8 26 39 1014.1 0 16.5 24.6 35.6 93.3 83.0 284.1
07 03:20 9.6 80 7.33 6.3 19 20 1014.9 0 17.1 25.1 36.8 96.3 86.7 296.9
07 03:10 9.7 80 7.38 6.4 19 22 1014.9 0 17.2 25.1 36.9 96.7 87.2 298.8
07 03:00 9.6 81 7.42 6.5 22 32 1014 0 17.3 25.2 37.1 97.2 87.8 300.8
07 02:50 9.5 82 7.47 6.6 22 24 1014.6 0 17.4 25.3 37.4 97.9 88.6 303.7
07 02:40 9.5 82 7.47 6.6 20 28 1014.8 0 17.4 25.3 37.4 97.9 88.7 303.8
07 02:30 9.4 82 7.42 6.5 19 26 1014.1 0 17.3 25.3 37.2 97.4 88.0 301.6
07 02:20 9.3 82 7.37 6.4 19 24 1014.9 0 17.2 25.2 37.1 97.1 87.5 299.9
07 02:10 9.4 81 7.33 6.3 19 20 1014.8 0 17.1 25.1 36.9 96.5 86.9 297.6
07 02:00 9.8 80 7.42 6.5 28 39 1014 0 17.2 25.1 37.0 96.9 87.6 300.1
07 01:50 9.9 83 7.75 7.2 19 22 1015 0 17.9 25.7 38.3 100.5 92.0 315.5
07 01:40 9.9 85 7.94 7.5 20 24 1015.2 0 18.4 26.0 39.1 102.6 94.6 324.5
07 01:30 9.8 86 7.98 7.6 20 32 1014.5 0 18.4 26.1 39.3 103.1 95.2 326.7
07 01:20 9.7 87 8.02 7.6 26 30 1015.2 0 18.5 26.2 39.6 103.8 95.9 329.2
07 01:10 9.6 88 8.06 7.7 22 26 1015.2 0 18.6 26.3 39.8 104.4 96.6 331.6
07 01:00 9.5 90 8.19 7.9 15 20 1014.5 0 18.9 26.5 40.4 105.9 98.4 338.1
07 00:50 9.1 92 8.17 7.9 13 15 1015.3 0 18.9 26.7 40.5 106.3 98.8 339.1
07 00:40 8.9 92 8.06 7.7 7 9 1015.3 0 18.7 26.5 40.1 105.3 97.5 334.6
07 00:30 8.8 93 8.1 7.7 11 13 1014.5 0 18.8 26.6 40.3 105.8 98.1 336.7
07 00:20 8.5 92 7.86 7.3 11 13 1015.2 0 18.2 26.3 39.5 103.6 95.2 326.6
07 00:10 8.7 91 7.87 7.3 11 13 1015.2 0 18.3 26.3 39.4 103.4 95.1 326.2
07 00:00 8.4 90 7.64 6.9 11 13 1014.3 0 17.8 25.9 38.6 101.2 92.2 316.1
06 23:50 8.7 90 7.79 7.2 9 11 1015.2 0 18.1 26.1 39.1 102.5 94.0 322.3
06 23:40 8.8 88 7.66 6.9 7 9 1015.1 0 17.8 25.9 38.5 100.9 92.1 315.7
06 23:30 9.2 87 7.77 7.2 6 7 1014.3 0 18.0 25.9 38.7 101.6 93.0 319.1
06 23:20 9.3 87 7.82 7.3 7 7 1015 0 18.1 26.0 38.9 102.1 93.7 321.2
06 23:10 9.5 86 7.83 7.3 7 9 1014.9 0 18.1 25.9 38.9 101.9 93.5 320.9
06 23:00 9.7 85 7.84 7.3 9 11 1014.1 0 18.2 25.9 38.8 101.7 93.4 320.3
06 22:50 10 84 7.9 7.4 9 9 1014.9 0 18.3 25.9 38.9 102.0 93.9 322.1
06 22:40 10.3 83 7.95 7.5 9 11 1014.9 0 18.4 25.9 39.0 102.2 94.2 323.3
06 22:30 10.5 83 8.05 7.7 9 11 1014.1 0 18.6 26.0 39.2 102.9 95.2 327.0
06 22:20 10.4 83 8 7.6 9 11 1014.8 0 18.5 26.0 39.1 102.6 94.7 325.2
06 22:10 10.5 83 8.05 7.7 9 11 1014.8 0 18.6 26.0 39.3 103.0 95.3 327.2
06 22:00 10.4 82 7.9 7.5 9 13 1013.8 0 18.2 25.8 38.7 101.4 93.3 320.2
06 21:50 10.5 82 7.95 7.6 9 11 1014.5 0 18.4 25.8 38.9 101.9 93.9 322.4
06 21:40 10.8 80 7.91 7.5 11 13 1014.5 0 18.3 25.7 38.5 101.0 93.0 319.2
06 21:30 11 79 7.91 7.5 11 15 1013.6 0 18.2 25.6 38.4 100.7 92.7 318.2
06 21:20 11.3 78 7.96 7.6 13 15 1014.3 0 18.3 25.6 38.5 100.9 93.1 319.5
06 21:10 11.4 76 7.8 7.3 11 13 1014.2 0 18.0 25.3 37.8 99.1 90.8 311.6
06 21:00 11.7 74 7.74 7.2 11 15 1013.4 0 17.8 25.1 37.4 98.0 89.6 307.4
06 20:50 11.9 73 7.73 7.2 11 13 1014.2 0 17.8 25.1 37.3 97.7 89.3 306.4
06 20:40 12.3 70 7.6 7 11 13 1013.9 0 17.5 24.7 36.6 95.8 87.1 298.8
06 20:30 12.7 66 7.35 6.5 13 20 1013 0 17.0 24.2 35.4 92.6 83.4 285.9
06 20:20 13.3 62 7.16 6.2 11 13 1013.6 0 16.5 23.8 34.4 90.0 80.4 275.4
06 20:10 13.7 61 7.22 6.3 11 11 1013.5 0 16.7 23.8 34.5 90.2 80.8 276.7
06 20:00 13.8 60 7.15 6.2 15 22 1012.6 0 16.5 23.6 34.1 89.3 79.7 273.0
06 19:50 13.9 58 6.95 5.8 13 15 1013.2 0 16.1 23.3 33.3 87.2 77.2 264.1
06 19:40 13.9 58 6.95 5.8 15 17 1013.1 0 16.1 23.3 33.3 87.2 77.2 264.1
06 19:29 14 57 6.88 5.6 15 17 1012.9 0 15.9 23.1 33.0 86.4 76.2 260.7
06 19:20 14 57 6.88 5.6 19 22 1012.8 0 15.9 23.1 33.0 86.4 76.2 260.7
06 19:10 14.1 56 6.8 5.5 20 24 1012.7 0 15.7 23.0 32.7 85.4 75.1 256.9
06 19:00 14.2 54 6.59 5 20 26 1011.6 0 15.3 22.6 31.8 83.2 72.4 247.3
06 18:50 14.3 53 6.51 4.9 20 22 1012.2 0 15.1 22.5 31.5 82.3 71.3 243.7
06 18:40 14.4 52 6.43 4.7 19 20 1012 0 14.9 22.3 31.2 81.4 70.3 240.0
06 18:30 14.5 51 6.34 4.5 22 32 1011.1 0 14.8 22.1 30.8 80.4 69.0 235.7
06 18:20 15 47 6.03 3.8 22 26 1011.7 0 14.1 21.6 29.5 76.9 65.0 221.5
06 18:10 15.1 45 5.81 3.3 19 26 1011.6 0 13.6 21.3 28.7 74.8 62.3 212.2
06 18:00 15.4 44 5.78 3.2 20 28 1010.7 0 13.5 21.1 28.4 74.1 61.7 210.0
06 17:50 15.3 44 5.75 3.1 22 26 1011.4 0 13.5 21.1 28.4 74.0 61.5 209.2
06 17:40 15.5 42 5.55 2.7 20 24 1011.3 0 13.0 20.8 27.6 71.9 59.0 200.6
06 17:30 15.8 40 5.38 2.2 22 28 1010.3 0 12.7 20.4 26.9 70.0 56.8 192.9
06 17:20 15.8 39 5.25 1.9 26 30 1010.9 0 12.4 20.3 26.5 68.9 55.4 187.8
06 17:10 16 38 5.18 1.7 20 24 1010.8 0 12.2 20.1 26.2 68.1 54.4 184.6
06 17:00 16.2 38 5.24 1.9 22 30 1009.8 0 12.4 20.1 26.3 68.4 54.9 186.3
06 16:50 16.1 37 5.07 1.4 24 28 1010.6 0 12.0 20.0 25.8 67.0 53.1 180.0
06 16:40 16.5 36 5.05 1.4 24 33 1010.5 0 12.0 19.8 25.6 66.5 52.6 178.3
06 16:30 16.4 36 5.02 1.3 20 35 1009.6 0 11.9 19.8 25.5 66.2 52.3 177.2
06 16:20 17 34 4.92 1 26 32 1010.2 0 11.7 19.6 25.0 64.9 50.9 172.2
06 16:10 16.7 33 4.69 0.4 26 32 1010.2 0 11.2 19.3 24.3 63.1 48.6 164.0
06 16:00 17.4 32 4.74 0.6 24 37 1009.3 0 11.3 19.2 24.2 62.9 48.6 164.4
06 15:50 17.2 33 4.83 0.8 28 37 1010.1 0 11.5 19.4 24.6 63.9 49.8 168.3
06 15:40 17.2 34 4.98 1.2 24 30 1010.1 0 11.8 19.6 25.1 65.3 51.4 174.1
06 15:30 16.7 35 4.97 1.2 28 37 1009.3 0 11.8 19.7 25.2 65.5 51.6 174.6
06 15:20 16 36 4.9 1 33 41 1010 0 11.7 19.7 25.2 65.5 51.3 173.5
06 15:10 16.4 36 5.02 1.3 32 39 1009.9 0 11.9 19.8 25.5 66.2 52.3 177.3
06 15:00 16.7 35 4.97 1.2 24 37 1009 0 11.8 19.6 25.2 65.5 51.6 174.6
06 14:50 17 34 4.92 1 22 30 1009.8 0 11.7 19.5 25.0 64.9 50.9 172.1
06 14:40 17.2 33 4.83 0.8 24 28 1009.8 0 11.5 19.4 24.6 63.9 49.8 168.3
06 14:30 17.4 34 5.04 1.4 24 37 1009 0 11.9 19.6 25.2 65.5 51.9 175.8
06 14:20 17.1 34 4.95 1.1 26 30 1009.8 0 11.7 19.6 25.0 65.1 51.1 173.1

Last Refresh: 07-Aug-2020 07:09:07

Most of the information presented on this site is sourced from the Bureau of Meteorology.  Copyright in all material sourced from the Bureau of Meteorology resides with the Commonwealth of Australia.